sensor_id;sensor_type;location;lat;lon;timestamp;P1;durP1;ratioP1;P2;durP2;ratioP2
60851;SDS011;48553;50.766;2.900;2023-11-18T00:00:15;9.55;;;5.38;;
60851;SDS011;48553;50.766;2.900;2023-11-18T00:03:17;16.17;;;5.68;;
60851;SDS011;48553;50.766;2.900;2023-11-18T00:06:17;13.45;;;5.53;;
60851;SDS011;48553;50.766;2.900;2023-11-18T00:09:18;12.13;;;5.25;;
60851;SDS011;48553;50.766;2.900;2023-11-18T00:12:19;14.15;;;5.53;;
60851;SDS011;48553;50.766;2.900;2023-11-18T00:15:20;12.45;;;5.88;;
60851;SDS011;48553;50.766;2.900;2023-11-18T00:18:21;13.68;;;5.78;;
60851;SDS011;48553;50.766;2.900;2023-11-18T00:21:21;14.15;;;5.43;;
60851;SDS011;48553;50.766;2.900;2023-11-18T00:24:21;14.60;;;5.50;;
60851;SDS011;48553;50.766;2.900;2023-11-18T00:27:22;14.85;;;5.65;;
60851;SDS011;48553;50.766;2.900;2023-11-18T00:30:22;12.85;;;5.60;;
60851;SDS011;48553;50.766;2.900;2023-11-18T00:33:23;13.48;;;5.47;;
60851;SDS011;48553;50.766;2.900;2023-11-18T00:36:23;13.00;;;5.30;;
60851;SDS011;48553;50.766;2.900;2023-11-18T00:39:24;13.38;;;5.28;;
60851;SDS011;48553;50.766;2.900;2023-11-18T00:42:25;12.88;;;5.38;;
60851;SDS011;48553;50.766;2.900;2023-11-18T00:45:25;15.85;;;5.18;;
60851;SDS011;48553;50.766;2.900;2023-11-18T00:48:27;9.75;;;5.18;;
60851;SDS011;48553;50.766;2.900;2023-11-18T00:51:28;13.30;;;5.13;;
60851;SDS011;48553;50.766;2.900;2023-11-18T00:54:28;11.13;;;4.93;;
60851;SDS011;48553;50.766;2.900;2023-11-18T00:57:29;13.75;;;5.25;;
60851;SDS011;48553;50.766;2.900;2023-11-18T01:00:29;16.42;;;5.53;;
60851;SDS011;48553;50.766;2.900;2023-11-18T01:03:30;13.27;;;4.93;;
60851;SDS011;48553;50.766;2.900;2023-11-18T01:06:30;12.95;;;5.35;;
60851;SDS011;48553;50.766;2.900;2023-11-18T01:09:32;14.60;;;5.40;;
60851;SDS011;48553;50.766;2.900;2023-11-18T01:12:39;14.80;;;5.88;;
60851;SDS011;48553;50.766;2.900;2023-11-18T01:15:40;16.42;;;5.88;;
60851;SDS011;48553;50.766;2.900;2023-11-18T01:18:41;13.77;;;5.75;;
60851;SDS011;48553;50.766;2.900;2023-11-18T01:21:42;13.48;;;5.65;;
60851;SDS011;48553;50.766;2.900;2023-11-18T01:24:42;14.73;;;5.65;;
60851;SDS011;48553;50.766;2.900;2023-11-18T01:27:44;15.27;;;6.40;;
60851;SDS011;48553;50.766;2.900;2023-11-18T01:30:47;9.70;;;5.38;;
60851;SDS011;48553;50.766;2.900;2023-11-18T01:33:48;12.90;;;5.75;;
60851;SDS011;48553;50.766;2.900;2023-11-18T01:36:50;14.77;;;5.55;;
60851;SDS011;48553;50.766;2.900;2023-11-18T01:39:50;16.52;;;5.50;;
60851;SDS011;48553;50.766;2.900;2023-11-18T01:42:51;11.30;;;4.65;;
60851;SDS011;48553;50.766;2.900;2023-11-18T01:45:52;12.48;;;4.88;;
60851;SDS011;48553;50.766;2.900;2023-11-18T01:48:53;16.67;;;5.22;;
60851;SDS011;48553;50.766;2.900;2023-11-18T01:51:53;16.15;;;4.82;;
60851;SDS011;48553;50.766;2.900;2023-11-18T01:54:54;14.85;;;4.90;;
60851;SDS011;48553;50.766;2.900;2023-11-18T01:57:55;12.45;;;4.35;;
60851;SDS011;48553;50.766;2.900;2023-11-18T02:00:58;12.10;;;4.53;;
60851;SDS011;48553;50.766;2.900;2023-11-18T02:03:58;10.02;;;4.07;;
60851;SDS011;48553;50.766;2.900;2023-11-18T02:06:59;9.93;;;3.97;;
60851;SDS011;48553;50.766;2.900;2023-11-18T02:10:04;11.18;;;3.83;;
60851;SDS011;48553;50.766;2.900;2023-11-18T02:13:24;8.30;;;3.45;;
60851;SDS011;48553;50.766;2.900;2023-11-18T02:16:29;8.07;;;3.42;;
60851;SDS011;48553;50.766;2.900;2023-11-18T02:19:31;11.38;;;3.35;;
60851;SDS011;48553;50.766;2.900;2023-11-18T02:22:34;11.80;;;3.72;;
60851;SDS011;48553;50.766;2.900;2023-11-18T02:25:40;10.77;;;3.35;;
60851;SDS011;48553;50.766;2.900;2023-11-18T02:28:44;12.25;;;3.30;;
60851;SDS011;48553;50.766;2.900;2023-11-18T02:31:45;10.30;;;2.80;;
60851;SDS011;48553;50.766;2.900;2023-11-18T02:35:13;10.80;;;2.85;;
60851;SDS011;48553;50.766;2.900;2023-11-18T02:41:19;9.25;;;2.90;;
60851;SDS011;48553;50.766;2.900;2023-11-18T02:44:21;8.82;;;3.03;;
60851;SDS011;48553;50.766;2.900;2023-11-18T02:47:23;7.75;;;2.50;;
60851;SDS011;48553;50.766;2.900;2023-11-18T02:50:24;8.90;;;2.83;;
60851;SDS011;48553;50.766;2.900;2023-11-18T02:53:25;9.82;;;2.60;;
60851;SDS011;48553;50.766;2.900;2023-11-18T02:56:25;10.50;;;2.30;;
60851;SDS011;48553;50.766;2.900;2023-11-18T02:59:26;9.20;;;2.50;;
60851;SDS011;48553;50.766;2.900;2023-11-18T03:02:30;6.50;;;2.35;;
60851;SDS011;48553;50.766;2.900;2023-11-18T03:05:31;7.55;;;2.55;;
60851;SDS011;48553;50.766;2.900;2023-11-18T03:08:31;6.18;;;2.25;;
60851;SDS011;48553;50.766;2.900;2023-11-18T03:11:31;10.88;;;2.42;;
60851;SDS011;48553;50.766;2.900;2023-11-18T03:14:33;9.02;;;2.25;;
60851;SDS011;48553;50.766;2.900;2023-11-18T03:17:34;10.52;;;2.35;;
60851;SDS011;48553;50.766;2.900;2023-11-18T03:20:35;8.60;;;2.47;;
60851;SDS011;48553;50.766;2.900;2023-11-18T03:23:35;9.77;;;2.20;;
60851;SDS011;48553;50.766;2.900;2023-11-18T03:26:35;8.48;;;2.10;;
60851;SDS011;48553;50.766;2.900;2023-11-18T03:29:36;7.85;;;2.22;;
60851;SDS011;48553;50.766;2.900;2023-11-18T03:32:37;7.25;;;2.15;;
60851;SDS011;48553;50.766;2.900;2023-11-18T03:35:38;7.47;;;2.30;;
60851;SDS011;48553;50.766;2.900;2023-11-18T03:38:38;9.05;;;2.05;;
60851;SDS011;48553;50.766;2.900;2023-11-18T03:41:39;7.80;;;2.08;;
60851;SDS011;48553;50.766;2.900;2023-11-18T03:44:40;11.35;;;2.70;;
60851;SDS011;48553;50.766;2.900;2023-11-18T03:47:40;10.90;;;2.30;;
60851;SDS011;48553;50.766;2.900;2023-11-18T03:50:41;13.07;;;2.20;;
60851;SDS011;48553;50.766;2.900;2023-11-18T03:53:41;10.25;;;2.35;;
60851;SDS011;48553;50.766;2.900;2023-11-18T03:56:42;10.65;;;2.28;;
60851;SDS011;48553;50.766;2.900;2023-11-18T03:59:42;7.10;;;1.98;;
60851;SDS011;48553;50.766;2.900;2023-11-18T04:02:43;8.75;;;1.92;;
60851;SDS011;48553;50.766;2.900;2023-11-18T04:05:45;10.65;;;2.33;;
60851;SDS011;48553;50.766;2.900;2023-11-18T04:08:48;11.07;;;2.50;;
60851;SDS011;48553;50.766;2.900;2023-11-18T04:11:48;9.88;;;2.22;;
60851;SDS011;48553;50.766;2.900;2023-11-18T04:14:49;8.10;;;2.17;;
60851;SDS011;48553;50.766;2.900;2023-11-18T04:17:49;8.93;;;2.22;;
60851;SDS011;48553;50.766;2.900;2023-11-18T04:20:50;10.80;;;2.78;;
60851;SDS011;48553;50.766;2.900;2023-11-18T04:23:50;8.32;;;2.17;;
60851;SDS011;48553;50.766;2.900;2023-11-18T04:26:50;11.52;;;2.33;;
60851;SDS011;48553;50.766;2.900;2023-11-18T04:29:51;5.43;;;2.10;;
60851;SDS011;48553;50.766;2.900;2023-11-18T04:32:52;8.35;;;2.45;;
60851;SDS011;48553;50.766;2.900;2023-11-18T04:35:53;10.00;;;2.70;;
60851;SDS011;48553;50.766;2.900;2023-11-18T04:38:57;11.35;;;2.90;;
60851;SDS011;48553;50.766;2.900;2023-11-18T04:41:57;6.72;;;2.50;;
60851;SDS011;48553;50.766;2.900;2023-11-18T04:44:58;11.55;;;2.67;;
60851;SDS011;48553;50.766;2.900;2023-11-18T04:47:58;8.65;;;2.80;;
60851;SDS011;48553;50.766;2.900;2023-11-18T04:50:59;14.38;;;3.30;;
60851;SDS011;48553;50.766;2.900;2023-11-18T04:53:59;10.18;;;2.83;;
60851;SDS011;48553;50.766;2.900;2023-11-18T04:57:00;12.75;;;3.13;;
60851;SDS011;48553;50.766;2.900;2023-11-18T05:00:01;13.80;;;3.05;;
60851;SDS011;48553;50.766;2.900;2023-11-18T05:03:10;7.80;;;3.10;;
60851;SDS011;48553;50.766;2.900;2023-11-18T05:06:10;15.93;;;3.47;;
60851;SDS011;48553;50.766;2.900;2023-11-18T05:09:11;12.15;;;3.40;;
60851;SDS011;48553;50.766;2.900;2023-11-18T05:12:11;9.18;;;3.45;;
60851;SDS011;48553;50.766;2.900;2023-11-18T05:15:12;13.13;;;3.47;;
60851;SDS011;48553;50.766;2.900;2023-11-18T05:18:13;10.18;;;3.25;;
60851;SDS011;48553;50.766;2.900;2023-11-18T05:21:16;14.10;;;3.45;;
60851;SDS011;48553;50.766;2.900;2023-11-18T05:24:17;10.57;;;3.33;;
60851;SDS011;48553;50.766;2.900;2023-11-18T05:27:17;9.50;;;3.72;;
60851;SDS011;48553;50.766;2.900;2023-11-18T05:30:17;10.23;;;3.50;;
60851;SDS011;48553;50.766;2.900;2023-11-18T05:33:18;11.85;;;3.70;;
60851;SDS011;48553;50.766;2.900;2023-11-18T05:36:19;11.88;;;3.85;;
60851;SDS011;48553;50.766;2.900;2023-11-18T05:39:27;10.88;;;3.97;;
60851;SDS011;48553;50.766;2.900;2023-11-18T05:42:30;11.88;;;3.67;;
60851;SDS011;48553;50.766;2.900;2023-11-18T05:45:31;12.02;;;3.72;;
60851;SDS011;48553;50.766;2.900;2023-11-18T05:48:54;13.82;;;3.92;;
60851;SDS011;48553;50.766;2.900;2023-11-18T05:51:55;8.93;;;3.92;;
60851;SDS011;48553;50.766;2.900;2023-11-18T05:54:57;13.27;;;4.28;;
60851;SDS011;48553;50.766;2.900;2023-11-18T05:57:57;11.65;;;4.22;;
60851;SDS011;48553;50.766;2.900;2023-11-18T06:00:58;9.35;;;3.97;;
60851;SDS011;48553;50.766;2.900;2023-11-18T06:03:58;13.95;;;4.30;;
60851;SDS011;48553;50.766;2.900;2023-11-18T06:07:00;8.43;;;4.07;;
60851;SDS011;48553;50.766;2.900;2023-11-18T06:10:02;14.73;;;4.80;;
60851;SDS011;48553;50.766;2.900;2023-11-18T06:13:05;9.98;;;4.07;;
60851;SDS011;48553;50.766;2.900;2023-11-18T06:16:06;15.98;;;4.80;;
60851;SDS011;48553;50.766;2.900;2023-11-18T06:19:06;10.82;;;4.63;;
60851;SDS011;48553;50.766;2.900;2023-11-18T06:22:07;10.32;;;4.40;;
60851;SDS011;48553;50.766;2.900;2023-11-18T06:25:07;14.00;;;4.93;;
60851;SDS011;48553;50.766;2.900;2023-11-18T06:28:08;13.40;;;4.35;;
60851;SDS011;48553;50.766;2.900;2023-11-18T06:31:09;12.40;;;5.10;;
60851;SDS011;48553;50.766;2.900;2023-11-18T06:34:09;14.60;;;5.10;;
60851;SDS011;48553;50.766;2.900;2023-11-18T06:37:10;15.73;;;5.07;;
60851;SDS011;48553;50.766;2.900;2023-11-18T06:40:10;15.25;;;5.43;;
60851;SDS011;48553;50.766;2.900;2023-11-18T06:43:16;13.27;;;5.38;;
60851;SDS011;48553;50.766;2.900;2023-11-18T06:46:20;14.20;;;5.93;;
60851;SDS011;48553;50.766;2.900;2023-11-18T06:49:22;15.63;;;6.00;;
60851;SDS011;48553;50.766;2.900;2023-11-18T06:52:22;13.35;;;5.97;;
60851;SDS011;48553;50.766;2.900;2023-11-18T06:55:22;14.45;;;5.88;;
60851;SDS011;48553;50.766;2.900;2023-11-18T06:58:23;14.82;;;6.10;;
60851;SDS011;48553;50.766;2.900;2023-11-18T07:01:23;21.33;;;6.50;;
60851;SDS011;48553;50.766;2.900;2023-11-18T07:04:24;15.15;;;6.50;;
60851;SDS011;48553;50.766;2.900;2023-11-18T07:07:24;18.63;;;6.88;;
60851;SDS011;48553;50.766;2.900;2023-11-18T07:10:24;16.80;;;6.82;;
60851;SDS011;48553;50.766;2.900;2023-11-18T07:13:27;17.02;;;7.47;;
60851;SDS011;48553;50.766;2.900;2023-11-18T07:16:28;17.85;;;7.30;;
60851;SDS011;48553;50.766;2.900;2023-11-18T07:19:28;17.58;;;7.40;;
60851;SDS011;48553;50.766;2.900;2023-11-18T07:22:29;20.27;;;7.30;;
60851;SDS011;48553;50.766;2.900;2023-11-18T07:25:29;15.50;;;7.32;;
60851;SDS011;48553;50.766;2.900;2023-11-18T07:28:30;14.32;;;7.00;;
60851;SDS011;48553;50.766;2.900;2023-11-18T07:31:31;17.60;;;6.88;;
60851;SDS011;48553;50.766;2.900;2023-11-18T07:34:31;17.70;;;7.15;;
60851;SDS011;48553;50.766;2.900;2023-11-18T07:37:35;19.55;;;8.05;;
60851;SDS011;48553;50.766;2.900;2023-11-18T07:40:37;22.02;;;8.23;;
60851;SDS011;48553;50.766;2.900;2023-11-18T07:43:44;17.80;;;8.40;;
60851;SDS011;48553;50.766;2.900;2023-11-18T07:46:44;16.65;;;8.10;;
60851;SDS011;48553;50.766;2.900;2023-11-18T07:49:45;17.98;;;8.27;;
60851;SDS011;48553;50.766;2.900;2023-11-18T07:52:48;18.63;;;8.23;;
60851;SDS011;48553;50.766;2.900;2023-11-18T07:55:48;17.48;;;7.72;;
60851;SDS011;48553;50.766;2.900;2023-11-18T07:58:50;15.23;;;7.97;;
60851;SDS011;48553;50.766;2.900;2023-11-18T08:01:51;18.50;;;8.05;;
60851;SDS011;48553;50.766;2.900;2023-11-18T08:04:53;17.17;;;7.90;;
60851;SDS011;48553;50.766;2.900;2023-11-18T08:07:54;18.60;;;8.02;;
60851;SDS011;48553;50.766;2.900;2023-11-18T08:10:54;16.10;;;8.10;;
60851;SDS011;48553;50.766;2.900;2023-11-18T08:13:55;17.65;;;8.02;;
60851;SDS011;48553;50.766;2.900;2023-11-18T08:16:56;13.85;;;7.10;;
60851;SDS011;48553;50.766;2.900;2023-11-18T08:19:56;16.77;;;7.30;;
60851;SDS011;48553;50.766;2.900;2023-11-18T08:22:57;14.98;;;6.97;;
60851;SDS011;48553;50.766;2.900;2023-11-18T08:25:58;16.17;;;7.13;;
60851;SDS011;48553;50.766;2.900;2023-11-18T08:28:59;15.18;;;6.90;;
60851;SDS011;48553;50.766;2.900;2023-11-18T08:32:00;15.52;;;6.72;;
60851;SDS011;48553;50.766;2.900;2023-11-18T08:35:00;12.90;;;6.05;;
60851;SDS011;48553;50.766;2.900;2023-11-18T08:38:01;11.43;;;6.20;;
60851;SDS011;48553;50.766;2.900;2023-11-18T08:41:04;11.63;;;5.53;;
60851;SDS011;48553;50.766;2.900;2023-11-18T08:44:09;10.20;;;5.28;;
60851;SDS011;48553;50.766;2.900;2023-11-18T08:47:13;13.52;;;5.55;;
60851;SDS011;48553;50.766;2.900;2023-11-18T08:50:13;13.55;;;5.40;;
60851;SDS011;48553;50.766;2.900;2023-11-18T08:53:17;10.20;;;5.47;;
60851;SDS011;48553;50.766;2.900;2023-11-18T08:56:18;12.23;;;4.90;;
60851;SDS011;48553;50.766;2.900;2023-11-18T08:59:20;10.57;;;4.80;;
60851;SDS011;48553;50.766;2.900;2023-11-18T09:02:27;7.30;;;4.50;;
60851;SDS011;48553;50.766;2.900;2023-11-18T09:05:29;9.77;;;4.68;;
60851;SDS011;48553;50.766;2.900;2023-11-18T09:08:35;8.13;;;4.00;;
60851;SDS011;48553;50.766;2.900;2023-11-18T09:11:38;7.72;;;4.00;;
60851;SDS011;48553;50.766;2.900;2023-11-18T09:14:41;8.73;;;4.15;;
60851;SDS011;48553;50.766;2.900;2023-11-18T09:17:42;9.95;;;4.25;;
60851;SDS011;48553;50.766;2.900;2023-11-18T09:20:45;7.47;;;3.58;;
60851;SDS011;48553;50.766;2.900;2023-11-18T09:23:47;8.50;;;3.40;;
60851;SDS011;48553;50.766;2.900;2023-11-18T09:26:48;6.72;;;3.70;;
60851;SDS011;48553;50.766;2.900;2023-11-18T09:29:50;9.40;;;3.50;;
60851;SDS011;48553;50.766;2.900;2023-11-18T09:32:50;7.47;;;3.60;;
60851;SDS011;48553;50.766;2.900;2023-11-18T09:35:52;7.20;;;3.60;;
60851;SDS011;48553;50.766;2.900;2023-11-18T09:38:58;7.00;;;3.15;;
60851;SDS011;48553;50.766;2.900;2023-11-18T09:41:59;8.10;;;3.13;;
60851;SDS011;48553;50.766;2.900;2023-11-18T09:45:03;5.07;;;2.88;;
60851;SDS011;48553;50.766;2.900;2023-11-18T09:48:05;7.32;;;3.00;;
60851;SDS011;48553;50.766;2.900;2023-11-18T09:51:07;4.70;;;2.80;;
60851;SDS011;48553;50.766;2.900;2023-11-18T09:57:37;6.63;;;2.25;;
60851;SDS011;48553;50.766;2.900;2023-11-18T10:00:41;5.97;;;2.40;;
60851;SDS011;48553;50.766;2.900;2023-11-18T10:03:42;4.43;;;2.28;;
60851;SDS011;48553;50.766;2.900;2023-11-18T10:06:46;3.70;;;1.95;;
60851;SDS011;48553;50.766;2.900;2023-11-18T10:09:47;3.47;;;1.85;;
60851;SDS011;48553;50.766;2.900;2023-11-18T10:12:50;3.28;;;1.48;;
60851;SDS011;48553;50.766;2.900;2023-11-18T10:15:57;4.07;;;2.05;;
60851;SDS011;48553;50.766;2.900;2023-11-18T10:18:59;2.55;;;1.60;;
60851;SDS011;48553;50.766;2.900;2023-11-18T10:22:15;3.58;;;1.30;;
60851;SDS011;48553;50.766;2.900;2023-11-18T10:25:23;2.78;;;1.45;;
60851;SDS011;48553;50.766;2.900;2023-11-18T10:28:25;3.47;;;1.38;;
60851;SDS011;48553;50.766;2.900;2023-11-18T10:31:29;2.83;;;1.50;;
60851;SDS011;48553;50.766;2.900;2023-11-18T10:34:31;2.88;;;1.60;;
60851;SDS011;48553;50.766;2.900;2023-11-18T10:37:31;2.00;;;1.20;;
60851;SDS011;48553;50.766;2.900;2023-11-18T10:40:32;3.53;;;1.38;;
60851;SDS011;48553;50.766;2.900;2023-11-18T10:43:36;2.42;;;1.25;;
60851;SDS011;48553;50.766;2.900;2023-11-18T10:46:37;3.90;;;1.40;;
60851;SDS011;48553;50.766;2.900;2023-11-18T10:49:37;3.58;;;1.50;;
60851;SDS011;48553;50.766;2.900;2023-11-18T10:52:37;2.85;;;1.30;;
60851;SDS011;48553;50.766;2.900;2023-11-18T10:55:40;2.40;;;1.40;;
60851;SDS011;48553;50.766;2.900;2023-11-18T10:58:41;3.28;;;1.38;;
60851;SDS011;48553;50.766;2.900;2023-11-18T11:01:42;4.50;;;1.38;;
60851;SDS011;48553;50.766;2.900;2023-11-18T11:04:43;2.75;;;1.40;;
60851;SDS011;48553;50.766;2.900;2023-11-18T11:07:45;2.72;;;1.48;;
60851;SDS011;48553;50.766;2.900;2023-11-18T11:10:46;4.75;;;1.40;;
60851;SDS011;48553;50.766;2.900;2023-11-18T11:13:50;2.80;;;1.02;;
60851;SDS011;48553;50.766;2.900;2023-11-18T11:16:56;2.65;;;1.42;;
60851;SDS011;48553;50.766;2.900;2023-11-18T11:24:11;3.35;;;1.30;;
60851;SDS011;48553;50.766;2.900;2023-11-18T11:27:00;2.38;;;1.27;;
60851;SDS011;48553;50.766;2.900;2023-11-18T11:30:27;2.10;;;1.20;;
60851;SDS011;48553;50.766;2.900;2023-11-18T11:36:55;3.22;;;1.40;;
60851;SDS011;48553;50.766;2.900;2023-11-18T11:39:59;2.60;;;1.35;;
60851;SDS011;48553;50.766;2.900;2023-11-18T11:43:00;2.40;;;1.45;;
60851;SDS011;48553;50.766;2.900;2023-11-18T11:46:04;2.17;;;1.35;;
60851;SDS011;48553;50.766;2.900;2023-11-18T11:49:10;2.53;;;1.65;;
60851;SDS011;48553;50.766;2.900;2023-11-18T11:52:30;2.78;;;1.70;;
60851;SDS011;48553;50.766;2.900;2023-11-18T11:55:48;2.58;;;1.60;;
60851;SDS011;48553;50.766;2.900;2023-11-18T11:58:53;2.80;;;1.73;;
60851;SDS011;48553;50.766;2.900;2023-11-18T12:01:53;2.63;;;1.73;;
60851;SDS011;48553;50.766;2.900;2023-11-18T12:04:58;3.20;;;1.83;;
60851;SDS011;48553;50.766;2.900;2023-11-18T12:07:59;3.15;;;1.90;;
60851;SDS011;48553;50.766;2.900;2023-11-18T12:10:59;2.97;;;1.73;;
60851;SDS011;48553;50.766;2.900;2023-11-18T12:14:01;3.15;;;1.80;;
60851;SDS011;48553;50.766;2.900;2023-11-18T12:17:09;3.67;;;1.70;;
60851;SDS011;48553;50.766;2.900;2023-11-18T12:20:37;3.95;;;1.65;;
60851;SDS011;48553;50.766;2.900;2023-11-18T12:30:41;3.20;;;1.58;;
60851;SDS011;48553;50.766;2.900;2023-11-18T12:37:12;4.00;;;2.05;;
60851;SDS011;48553;50.766;2.900;2023-11-18T12:44:08;3.63;;;1.80;;
60851;SDS011;48553;50.766;2.900;2023-11-18T12:47:17;4.05;;;1.85;;
60851;SDS011;48553;50.766;2.900;2023-11-18T12:50:28;2.70;;;1.60;;
60851;SDS011;48553;50.766;2.900;2023-11-18T12:53:32;4.10;;;1.80;;
60851;SDS011;48553;50.766;2.900;2023-11-18T12:56:35;2.90;;;1.60;;
60851;SDS011;48553;50.766;2.900;2023-11-18T12:59:38;3.15;;;2.00;;
60851;SDS011;48553;50.766;2.900;2023-11-18T13:02:39;2.78;;;1.88;;
60851;SDS011;48553;50.766;2.900;2023-11-18T13:05:43;2.47;;;1.58;;
60851;SDS011;48553;50.766;2.900;2023-11-18T13:08:43;3.15;;;1.80;;
60851;SDS011;48553;50.766;2.900;2023-11-18T13:11:44;3.22;;;1.75;;
60851;SDS011;48553;50.766;2.900;2023-11-18T13:14:47;2.67;;;1.52;;
60851;SDS011;48553;50.766;2.900;2023-11-18T13:17:57;3.38;;;1.58;;
60851;SDS011;48553;50.766;2.900;2023-11-18T13:20:59;2.00;;;1.33;;
60851;SDS011;48553;50.766;2.900;2023-11-18T13:24:00;3.03;;;1.40;;
60851;SDS011;48553;50.766;2.900;2023-11-18T13:27:00;3.25;;;1.70;;
60851;SDS011;48553;50.766;2.900;2023-11-18T13:30:04;2.30;;;1.40;;
60851;SDS011;48553;50.766;2.900;2023-11-18T13:33:06;3.92;;;1.42;;
60851;SDS011;48553;50.766;2.900;2023-11-18T13:36:07;3.10;;;1.50;;
60851;SDS011;48553;50.766;2.900;2023-11-18T13:39:30;2.65;;;1.25;;
60851;SDS011;48553;50.766;2.900;2023-11-18T13:42:31;2.83;;;1.20;;
60851;SDS011;48553;50.766;2.900;2023-11-18T13:45:33;2.15;;;1.23;;
60851;SDS011;48553;50.766;2.900;2023-11-18T13:48:34;1.52;;;1.00;;
60851;SDS011;48553;50.766;2.900;2023-11-18T13:51:34;2.97;;;1.15;;
60851;SDS011;48553;50.766;2.900;2023-11-18T13:54:36;1.95;;;1.10;;
60851;SDS011;48553;50.766;2.900;2023-11-18T13:57:38;2.15;;;1.27;;
60851;SDS011;48553;50.766;2.900;2023-11-18T14:00:39;1.90;;;1.10;;
60851;SDS011;48553;50.766;2.900;2023-11-18T14:03:40;1.92;;;1.00;;
60851;SDS011;48553;50.766;2.900;2023-11-18T14:06:43;1.80;;;0.90;;
60851;SDS011;48553;50.766;2.900;2023-11-18T14:09:44;2.35;;;1.05;;
60851;SDS011;48553;50.766;2.900;2023-11-18T14:13:01;3.08;;;1.08;;
60851;SDS011;48553;50.766;2.900;2023-11-18T14:19:06;1.95;;;1.00;;
60851;SDS011;48553;50.766;2.900;2023-11-18T14:22:07;2.50;;;1.00;;
60851;SDS011;48553;50.766;2.900;2023-11-18T14:25:09;1.63;;;0.90;;
60851;SDS011;48553;50.766;2.900;2023-11-18T14:28:10;1.75;;;1.05;;
60851;SDS011;48553;50.766;2.900;2023-11-18T14:31:10;1.80;;;0.93;;
60851;SDS011;48553;50.766;2.900;2023-11-18T14:34:11;1.70;;;0.90;;
60851;SDS011;48553;50.766;2.900;2023-11-18T14:37:11;2.28;;;1.20;;
60851;SDS011;48553;50.766;2.900;2023-11-18T14:40:12;1.58;;;1.00;;
60851;SDS011;48553;50.766;2.900;2023-11-18T14:43:14;1.88;;;1.05;;
60851;SDS011;48553;50.766;2.900;2023-11-18T14:46:15;1.88;;;1.00;;
60851;SDS011;48553;50.766;2.900;2023-11-18T14:49:15;1.70;;;0.98;;
60851;SDS011;48553;50.766;2.900;2023-11-18T14:52:16;1.98;;;0.93;;
60851;SDS011;48553;50.766;2.900;2023-11-18T14:58:20;3.33;;;1.13;;
60851;SDS011;48553;50.766;2.900;2023-11-18T15:01:21;3.10;;;1.10;;
60851;SDS011;48553;50.766;2.900;2023-11-18T15:04:21;1.75;;;0.95;;
60851;SDS011;48553;50.766;2.900;2023-11-18T15:07:23;1.30;;;0.82;;
60851;SDS011;48553;50.766;2.900;2023-11-18T15:10:24;2.10;;;1.00;;
60851;SDS011;48553;50.766;2.900;2023-11-18T15:13:25;2.58;;;1.15;;
60851;SDS011;48553;50.766;2.900;2023-11-18T15:16:26;2.80;;;1.50;;
60851;SDS011;48553;50.766;2.900;2023-11-18T15:19:27;3.25;;;1.30;;
60851;SDS011;48553;50.766;2.900;2023-11-18T15:22:27;2.30;;;1.50;;
60851;SDS011;48553;50.766;2.900;2023-11-18T15:25:28;2.60;;;1.38;;
60851;SDS011;48553;50.766;2.900;2023-11-18T15:28:29;5.05;;;1.45;;
60851;SDS011;48553;50.766;2.900;2023-11-18T15:31:31;2.28;;;1.25;;
60851;SDS011;48553;50.766;2.900;2023-11-18T15:34:32;2.13;;;1.20;;
60851;SDS011;48553;50.766;2.900;2023-11-18T15:37:32;1.90;;;1.00;;
60851;SDS011;48553;50.766;2.900;2023-11-18T15:40:32;2.58;;;1.05;;
60851;SDS011;48553;50.766;2.900;2023-11-18T15:43:33;3.03;;;1.23;;
60851;SDS011;48553;50.766;2.900;2023-11-18T15:46:33;2.75;;;1.00;;
60851;SDS011;48553;50.766;2.900;2023-11-18T15:49:37;2.28;;;1.33;;
60851;SDS011;48553;50.766;2.900;2023-11-18T15:52:38;2.05;;;1.00;;
60851;SDS011;48553;50.766;2.900;2023-11-18T15:55:39;2.15;;;1.17;;
60851;SDS011;48553;50.766;2.900;2023-11-18T15:58:41;2.22;;;1.27;;
60851;SDS011;48553;50.766;2.900;2023-11-18T16:01:41;3.10;;;1.30;;
60851;SDS011;48553;50.766;2.900;2023-11-18T16:04:42;2.92;;;1.63;;
60851;SDS011;48553;50.766;2.900;2023-11-18T16:07:43;2.28;;;1.50;;
60851;SDS011;48553;50.766;2.900;2023-11-18T16:10:47;2.65;;;1.58;;
60851;SDS011;48553;50.766;2.900;2023-11-18T16:13:47;2.22;;;1.60;;
60851;SDS011;48553;50.766;2.900;2023-11-18T16:16:48;2.80;;;1.40;;
60851;SDS011;48553;50.766;2.900;2023-11-18T16:19:48;2.17;;;1.50;;
60851;SDS011;48553;50.766;2.900;2023-11-18T16:22:50;2.60;;;1.73;;
60851;SDS011;48553;50.766;2.900;2023-11-18T16:25:51;2.85;;;1.83;;
60851;SDS011;48553;50.766;2.900;2023-11-18T16:28:51;4.55;;;1.77;;
60851;SDS011;48553;50.766;2.900;2023-11-18T16:31:52;2.55;;;1.73;;
60851;SDS011;48553;50.766;2.900;2023-11-18T16:34:52;3.55;;;2.20;;
60851;SDS011;48553;50.766;2.900;2023-11-18T16:37:53;3.53;;;1.75;;
60851;SDS011;48553;50.766;2.900;2023-11-18T16:40:54;2.55;;;1.80;;
60851;SDS011;48553;50.766;2.900;2023-11-18T16:43:55;3.15;;;1.95;;
60851;SDS011;48553;50.766;2.900;2023-11-18T16:46:56;3.25;;;2.00;;
60851;SDS011;48553;50.766;2.900;2023-11-18T16:49:57;4.88;;;2.10;;
60851;SDS011;48553;50.766;2.900;2023-11-18T16:52:57;4.22;;;2.25;;
60851;SDS011;48553;50.766;2.900;2023-11-18T16:55:59;3.40;;;2.20;;
60851;SDS011;48553;50.766;2.900;2023-11-18T16:58:59;4.05;;;2.38;;
60851;SDS011;48553;50.766;2.900;2023-11-18T17:02:00;4.68;;;2.72;;
60851;SDS011;48553;50.766;2.900;2023-11-18T17:05:01;5.75;;;3.17;;
60851;SDS011;48553;50.766;2.900;2023-11-18T17:08:02;4.10;;;2.85;;
60851;SDS011;48553;50.766;2.900;2023-11-18T17:11:05;7.70;;;4.50;;
60851;SDS011;48553;50.766;2.900;2023-11-18T17:14:05;4.75;;;3.40;;
60851;SDS011;48553;50.766;2.900;2023-11-18T17:17:07;4.72;;;2.70;;
60851;SDS011;48553;50.766;2.900;2023-11-18T17:20:09;7.47;;;3.78;;
60851;SDS011;48553;50.766;2.900;2023-11-18T17:23:11;6.38;;;3.58;;
60851;SDS011;48553;50.766;2.900;2023-11-18T17:26:11;6.70;;;3.67;;
60851;SDS011;48553;50.766;2.900;2023-11-18T17:29:12;6.18;;;3.70;;
60851;SDS011;48553;50.766;2.900;2023-11-18T17:32:13;5.25;;;2.67;;
60851;SDS011;48553;50.766;2.900;2023-11-18T17:35:14;5.75;;;3.80;;
60851;SDS011;48553;50.766;2.900;2023-11-18T17:38:15;5.43;;;3.67;;
60851;SDS011;48553;50.766;2.900;2023-11-18T17:41:16;5.82;;;3.20;;
60851;SDS011;48553;50.766;2.900;2023-11-18T17:44:18;6.22;;;3.60;;
60851;SDS011;48553;50.766;2.900;2023-11-18T17:47:18;8.48;;;3.83;;
60851;SDS011;48553;50.766;2.900;2023-11-18T17:50:20;5.53;;;3.90;;
60851;SDS011;48553;50.766;2.900;2023-11-18T17:53:20;6.07;;;4.20;;
60851;SDS011;48553;50.766;2.900;2023-11-18T17:56:23;6.57;;;3.90;;
60851;SDS011;48553;50.766;2.900;2023-11-18T17:59:23;6.20;;;3.85;;
60851;SDS011;48553;50.766;2.900;2023-11-18T18:02:24;6.35;;;3.95;;
60851;SDS011;48553;50.766;2.900;2023-11-18T18:05:24;6.18;;;4.47;;
60851;SDS011;48553;50.766;2.900;2023-11-18T18:08:24;5.15;;;3.80;;
60851;SDS011;48553;50.766;2.900;2023-11-18T18:11:25;7.88;;;5.45;;
60851;SDS011;48553;50.766;2.900;2023-11-18T18:14:26;7.53;;;4.60;;
60851;SDS011;48553;50.766;2.900;2023-11-18T18:17:27;7.00;;;4.32;;
60851;SDS011;48553;50.766;2.900;2023-11-18T18:20:28;8.35;;;5.38;;
60851;SDS011;48553;50.766;2.900;2023-11-18T18:23:28;8.93;;;5.00;;
60851;SDS011;48553;50.766;2.900;2023-11-18T18:26:29;9.55;;;4.63;;
60851;SDS011;48553;50.766;2.900;2023-11-18T18:29:29;7.93;;;4.38;;
60851;SDS011;48553;50.766;2.900;2023-11-18T18:32:30;8.10;;;5.00;;
60851;SDS011;48553;50.766;2.900;2023-11-18T18:35:30;8.38;;;5.60;;
60851;SDS011;48553;50.766;2.900;2023-11-18T18:38:31;7.68;;;4.85;;
60851;SDS011;48553;50.766;2.900;2023-11-18T18:41:31;9.25;;;5.55;;
60851;SDS011;48553;50.766;2.900;2023-11-18T18:44:31;8.05;;;4.82;;